createdAt,value
2019-04-25T00:01:17.340Z,22.00
2019-04-25T00:03:49.284Z,22.60
2019-04-25T00:06:23.045Z,22.50
2019-04-25T00:08:55.456Z,22.40
2019-04-25T00:11:27.489Z,22.70
2019-04-25T00:13:59.265Z,22.70
2019-04-25T00:16:32.807Z,22.50
2019-04-25T00:19:04.807Z,22.40
2019-04-25T00:21:51.687Z,22.20
2019-04-25T00:24:34.483Z,22.70
2019-04-25T00:27:06.663Z,22.80
2019-04-25T00:29:38.848Z,22.60
2019-04-25T00:32:11.726Z,22.60
2019-04-25T00:34:45.552Z,22.70
2019-04-25T00:37:17.321Z,22.50
2019-04-25T00:39:49.719Z,22.30
2019-04-25T00:42:23.123Z,22.70
2019-04-25T00:44:55.065Z,22.60
2019-04-25T00:47:26.851Z,22.40
2019-04-25T00:49:58.733Z,22.50
2019-04-25T00:52:31.357Z,22.40
2019-04-25T00:55:03.591Z,22.30
2019-04-25T00:57:36.850Z,22.50
2019-04-25T01:00:51.127Z,22.60
2019-04-25T01:03:26.997Z,22.70
2019-04-25T01:05:58.757Z,22.50
2019-04-25T01:08:31.945Z,22.40
2019-04-25T01:11:04.192Z,22.80
2019-04-25T01:13:35.951Z,22.90
2019-04-25T01:16:08.282Z,23.60
2019-04-25T01:18:40.087Z,23.60
2019-04-25T01:21:11.885Z,23.50
2019-04-25T01:23:43.969Z,23.40
2019-04-25T01:26:15.956Z,23.50
2019-04-25T01:28:47.815Z,23.10
2019-04-25T01:31:23.339Z,22.80
2019-04-25T01:33:55.698Z,22.70
2019-04-25T01:36:35.774Z,23.10
2019-04-25T01:39:21.198Z,22.60
2019-04-25T01:42:10.409Z,22.60
2019-04-25T01:44:44.710Z,22.90
2019-04-25T01:47:17.665Z,22.80
2019-04-25T01:49:50.221Z,22.70
2019-04-25T01:52:23.520Z,22.60
2019-04-25T01:54:56.259Z,22.40
2019-04-25T01:57:29.395Z,22.60
2019-04-25T02:00:01.883Z,22.70
2019-04-25T02:02:35.257Z,23.10
2019-04-25T02:05:08.319Z,23.70
2019-04-25T02:07:40.075Z,23.00
2019-04-25T02:10:13.460Z,23.00
2019-04-25T02:12:51.345Z,23.10
2019-04-25T02:15:27.262Z,23.00
2019-04-25T02:18:00.266Z,23.00
2019-04-25T02:20:33.920Z,23.10
2019-04-25T02:23:06.021Z,23.10
2019-04-25T02:25:39.006Z,23.00
2019-04-25T02:28:11.101Z,22.80
2019-04-25T02:30:45.156Z,22.60
2019-04-25T02:33:16.458Z,22.50
2019-04-25T02:35:48.332Z,22.70
2019-04-25T02:38:20.086Z,22.70
2019-04-25T02:40:55.839Z,22.80
2019-04-25T02:43:26.032Z,22.60
2019-04-25T02:46:25.528Z,22.70
2019-04-25T02:49:35.575Z,22.80
2019-04-25T02:52:25.681Z,22.80
2019-04-25T02:54:59.060Z,22.90
2019-04-25T02:57:31.006Z,23.10
2019-04-25T03:00:05.580Z,23.10
2019-04-25T03:02:38.175Z,23.00
2019-04-25T03:05:10.728Z,22.90
2019-04-25T03:07:44.551Z,23.00
2019-04-25T03:10:16.059Z,22.80
2019-04-25T03:12:47.815Z,22.80
2019-04-25T03:15:19.707Z,23.40
2019-04-25T03:17:51.478Z,22.80
2019-04-25T03:20:54.923Z,23.00
2019-04-25T03:23:42.490Z,23.30
2019-04-25T03:26:13.614Z,23.40
2019-04-25T03:28:45.347Z,23.50
2019-04-25T03:31:22.613Z,23.40
2019-04-25T03:33:51.230Z,23.20
2019-04-25T03:36:23.843Z,23.20
2019-04-25T03:38:56.042Z,23.30
2019-04-25T03:41:27.809Z,23.40
2019-04-25T03:43:59.609Z,23.60
2019-04-25T03:46:33.310Z,23.40
2019-04-25T03:49:06.065Z,23.60
2019-04-25T03:51:38.174Z,23.90
2019-04-25T03:54:10.615Z,23.80
2019-04-25T03:56:53.262Z,23.70
2019-04-25T03:59:16.194Z,23.80
2019-04-25T04:01:48.036Z,24.10
2019-04-25T04:04:19.802Z,23.90
2019-04-25T04:06:51.623Z,24.20
2019-04-25T04:09:24.012Z,24.10
2019-04-25T04:11:56.490Z,24.10
2019-04-25T04:14:28.356Z,24.20
2019-04-25T04:17:37.103Z,24.40
2019-04-25T04:20:26.998Z,24.30
2019-04-25T04:23:09.501Z,24.10
2019-04-25T04:25:41.350Z,24.10
2019-04-25T04:28:14.090Z,23.80
2019-04-25T04:30:46.745Z,23.70
2019-04-25T04:33:29.617Z,24.00
2019-04-25T04:35:54.002Z,24.30
2019-04-25T04:38:25.863Z,24.10
2019-04-25T04:40:57.634Z,23.70
2019-04-25T04:43:29.453Z,23.50
2019-04-25T04:46:01.205Z,23.50
2019-04-25T04:48:34.646Z,23.60
2019-04-25T04:51:06.389Z,23.40
2019-04-25T04:53:38.152Z,23.40
2019-04-25T04:56:09.922Z,23.50
2019-04-25T04:58:43.101Z,23.20
2019-04-25T05:01:16.814Z,23.00
2019-04-25T05:03:55.619Z,23.00
2019-04-25T05:06:46.251Z,23.30
2019-04-25T05:09:23.719Z,23.60
2019-04-25T05:11:55.959Z,23.50
2019-04-25T05:14:27.730Z,23.70
2019-04-25T05:16:59.520Z,24.00
2019-04-25T05:19:31.307Z,24.40
2019-04-25T05:22:03.640Z,24.60
2019-04-25T05:24:35.738Z,24.40
2019-04-25T05:27:07.604Z,24.60
2019-04-25T05:29:39.541Z,24.60
2019-04-25T05:32:11.295Z,24.50
2019-04-25T05:34:44.090Z,24.20
2019-04-25T05:37:17.583Z,24.50
2019-04-25T05:39:49.690Z,24.40
2019-04-25T05:42:46.369Z,24.30
2019-04-25T05:45:19.942Z,24.10
2019-04-25T05:47:54.089Z,23.90
2019-04-25T05:50:26.514Z,23.80
2019-04-25T05:52:58.278Z,24.20
2019-04-25T05:55:30.092Z,23.90
2019-04-25T05:58:03.795Z,23.90
2019-04-25T06:00:35.395Z,24.00
2019-04-25T06:03:07.298Z,23.50
2019-04-25T06:05:39.280Z,23.20
2019-04-25T06:08:11.069Z,23.00
2019-04-25T06:11:01.694Z,22.90
2019-04-25T06:13:43.377Z,22.90
2019-04-25T06:16:23.666Z,23.00
2019-04-25T06:19:14.116Z,23.50
2019-04-25T06:21:44.838Z,23.10
2019-04-25T06:24:34.915Z,23.20
2019-04-25T06:27:26.924Z,23.30
2019-04-25T06:30:06.053Z,23.40
2019-04-25T06:32:37.953Z,23.40
2019-04-25T06:35:10.107Z,23.20
2019-04-25T06:37:43.734Z,23.10
2019-04-25T06:40:18.134Z,22.90
2019-04-25T06:42:49.962Z,22.70
2019-04-25T06:45:41.703Z,23.10
2019-04-25T06:48:33.891Z,23.20
2019-04-25T06:51:06.014Z,23.10
2019-04-25T06:53:38.111Z,22.90
2019-04-25T06:56:09.907Z,22.70
2019-04-25T06:58:41.708Z,22.90
2019-04-25T07:01:13.701Z,22.80
2019-04-25T07:03:45.656Z,22.30
2019-04-25T07:06:17.541Z,22.30
2019-04-25T07:08:49.600Z,22.70
2019-04-25T07:11:21.351Z,22.10
2019-04-25T07:13:53.678Z,22.40
2019-04-25T07:16:26.063Z,22.30
2019-04-25T07:18:58.142Z,22.50
2019-04-25T07:21:30.284Z,22.70
2019-04-25T07:24:02.268Z,22.30
2019-04-25T07:27:03.798Z,22.20
2019-04-25T07:30:00.947Z,22.20
2019-04-25T07:32:45.343Z,22.10
2019-04-25T07:35:17.799Z,22.40
2019-04-25T07:37:51.053Z,22.30
2019-04-25T07:40:25.575Z,22.40
2019-04-25T07:42:57.887Z,22.50
2019-04-25T07:45:30.786Z,22.40
2019-04-25T07:48:04.028Z,22.20
2019-04-25T07:50:36.704Z,22.40
2019-04-25T07:53:08.686Z,22.30
2019-04-25T07:55:40.494Z,22.00
2019-04-25T07:58:12.346Z,21.80
2019-04-25T08:00:44.245Z,21.80
2019-04-25T08:03:16.408Z,22.00
2019-04-25T08:05:48.161Z,21.80
2019-04-25T08:08:19.930Z,21.80
2019-04-25T08:11:04.207Z,22.20
2019-04-25T08:13:54.025Z,21.80
2019-04-25T08:16:28.860Z,21.60
2019-04-25T08:19:03.951Z,21.80
2019-04-25T08:21:38.347Z,21.90
2019-04-25T08:24:10.603Z,21.70
2019-04-25T08:26:43.688Z,21.60
2019-04-25T08:29:15.666Z,22.20
2019-04-25T08:31:47.724Z,22.10
2019-04-25T08:34:21.019Z,21.90
2019-04-25T08:36:54.329Z,21.80
2019-04-25T08:39:26.714Z,22.10
2019-04-25T08:41:58.852Z,21.80
2019-04-25T08:44:31.551Z,22.00
2019-04-25T08:47:04.568Z,21.90
2019-04-25T08:49:44.122Z,21.60
2019-04-25T08:52:15.596Z,21.20
2019-04-25T08:55:11.172Z,21.60
2019-04-25T08:57:55.072Z,21.20
2019-04-25T09:00:58.054Z,21.00
2019-04-25T09:03:24.199Z,20.40
2019-04-25T09:05:56.204Z,20.00
2019-04-25T09:08:28.220Z,20.30
2019-04-25T09:11:00.144Z,20.20
2019-04-25T09:13:33.049Z,20.20
2019-04-25T09:16:05.775Z,20.10
2019-04-25T09:18:38.193Z,20.40
2019-04-25T09:21:10.158Z,20.00
2019-04-25T09:23:43.396Z,20.20
2019-04-25T09:26:15.423Z,20.30
2019-04-25T09:28:47.518Z,20.40
2019-04-25T09:31:20.679Z,20.30
2019-04-25T09:33:55.193Z,20.40
2019-04-25T09:36:27.078Z,20.20
2019-04-25T09:39:01.664Z,19.90
2019-04-25T09:41:35.987Z,19.80
2019-04-25T09:44:10.377Z,19.80
2019-04-25T09:46:43.788Z,19.70
2019-04-25T09:49:23.805Z,19.70
2019-04-25T09:52:10.853Z,19.40
2019-04-25T09:54:48.429Z,19.10
2019-04-25T09:57:45.950Z,19.60
2019-04-25T10:00:45.925Z,19.20
2019-04-25T10:03:19.498Z,19.00
2019-04-25T10:05:51.791Z,19.20
2019-04-25T10:08:24.232Z,19.20
2019-04-25T10:10:56.170Z,19.60
2019-04-25T10:13:29.202Z,19.60
2019-04-25T10:16:12.993Z,20.00
2019-04-25T10:18:45.797Z,19.70
2019-04-25T10:21:18.042Z,19.20
2019-04-25T10:23:51.280Z,19.40
2019-04-25T10:26:23.666Z,19.10
2019-04-25T10:28:55.468Z,19.00
2019-04-25T10:31:27.592Z,19.00
2019-04-25T10:33:59.864Z,18.90
2019-04-25T10:36:33.616Z,19.00
2019-04-25T10:39:11.126Z,18.90
2019-04-25T10:41:44.817Z,19.10
2019-04-25T10:44:16.673Z,19.10
2019-04-25T10:46:48.827Z,19.40
2019-04-25T10:49:20.626Z,18.50
2019-04-25T10:51:52.913Z,18.30
2019-04-25T10:54:25.816Z,18.70
2019-04-25T10:56:57.614Z,18.80
2019-04-25T10:59:29.433Z,18.70
2019-04-25T11:02:01.530Z,18.80
2019-04-25T11:04:47.170Z,18.70
2019-04-25T11:07:17.906Z,18.90
2019-04-25T11:09:49.777Z,18.60
2019-04-25T11:12:23.363Z,18.80
2019-04-25T11:14:56.264Z,18.70
2019-04-25T11:17:28.572Z,18.90
2019-04-25T11:20:00.896Z,19.40
2019-04-25T11:22:34.247Z,18.90
2019-04-25T11:25:06.746Z,19.10
2019-04-25T11:27:38.758Z,18.80
2019-04-25T11:30:11.801Z,18.40
2019-04-25T11:32:45.176Z,18.30
2019-04-25T11:35:18.106Z,18.50
2019-04-25T11:37:52.560Z,18.10
2019-04-25T11:40:40.074Z,18.40
2019-04-25T11:43:12.265Z,18.20
2019-04-25T11:45:45.075Z,18.60
2019-04-25T11:48:18.110Z,18.00
2019-04-25T11:50:52.450Z,18.00
2019-04-25T11:53:25.035Z,17.80
2019-04-25T11:55:57.367Z,18.20
2019-04-25T11:58:29.148Z,18.30
2019-04-25T12:01:01.260Z,17.90
2019-04-25T12:03:34.600Z,18.10
2019-04-25T12:06:06.604Z,18.50
2019-04-25T12:08:38.454Z,18.30
2019-04-25T12:11:10.299Z,18.30
2019-04-25T12:13:45.664Z,18.10
2019-04-25T12:16:16.069Z,18.20
2019-04-25T12:18:50.202Z,18.00
2019-04-25T12:21:21.573Z,17.80
2019-04-25T12:23:53.532Z,18.10
2019-04-25T12:26:26.343Z,17.60
2019-04-25T12:28:58.235Z,17.10
2019-04-25T12:31:30.042Z,17.30
2019-04-25T12:34:03.505Z,16.70
2019-04-25T12:36:35.509Z,16.70
2019-04-25T12:39:10.611Z,16.80
2019-04-25T12:41:45.562Z,16.60
2019-04-25T12:44:35.766Z,16.50
2019-04-25T12:47:13.624Z,16.50
2019-04-25T12:49:46.644Z,16.30
2019-04-25T12:52:19.820Z,16.60
2019-04-25T12:54:51.585Z,16.80
2019-04-25T12:57:24.148Z,16.70
2019-04-25T12:59:55.977Z,17.00
2019-04-25T13:02:28.808Z,17.40
2019-04-25T13:05:01.522Z,17.00
2019-04-25T13:07:35.059Z,16.60
2019-04-25T13:10:07.938Z,16.40
2019-04-25T13:12:39.891Z,15.90
2019-04-25T13:15:11.973Z,16.00
2019-04-25T13:17:43.850Z,15.70
2019-04-25T13:20:16.146Z,16.30
2019-04-25T13:22:47.969Z,16.00
2019-04-25T13:25:21.456Z,15.40
2019-04-25T13:28:11.156Z,15.90
2019-04-25T13:31:08.953Z,15.70
2019-04-25T13:33:43.319Z,15.30
2019-04-25T13:36:16.546Z,15.40
2019-04-25T13:38:48.455Z,15.30
2019-04-25T13:41:20.648Z,15.20
2019-04-25T13:43:53.060Z,14.60
2019-04-25T13:46:27.703Z,13.70
2019-04-25T13:48:59.743Z,14.20
2019-04-25T13:51:31.689Z,13.90
2019-04-25T13:54:03.521Z,14.20
2019-04-25T13:56:40.301Z,14.10
2019-04-25T13:59:09.116Z,14.00
2019-04-25T14:01:40.907Z,13.70
2019-04-25T14:04:14.243Z,13.50
2019-04-25T14:06:46.561Z,12.80
2019-04-25T14:09:21.406Z,13.10
2019-04-25T14:11:53.989Z,13.40
2019-04-25T14:14:26.791Z,13.60
2019-04-25T14:17:09.883Z,13.70
2019-04-25T14:20:04.272Z,14.20
2019-04-25T14:22:36.574Z,14.30
2019-04-25T14:25:08.662Z,14.70
2019-04-25T14:27:40.475Z,14.40
2019-04-25T14:30:13.984Z,14.30
2019-04-25T14:32:45.790Z,13.20
2019-04-25T14:35:17.930Z,13.10
2019-04-25T14:37:50.029Z,12.90
2019-04-25T14:40:23.001Z,12.60
2019-04-25T14:42:55.551Z,13.10
2019-04-25T14:45:27.489Z,13.00
2019-04-25T14:47:59.459Z,12.90
2019-04-25T14:50:31.864Z,12.60
2019-04-25T14:53:03.993Z,12.70
2019-04-25T14:55:54.644Z,12.20
2019-04-25T14:58:28.925Z,12.20
2019-04-25T15:01:00.700Z,12.10
2019-04-25T15:03:32.634Z,12.40
2019-04-25T15:06:04.432Z,12.30
2019-04-25T15:08:36.623Z,12.50
2019-04-25T15:11:08.467Z,12.70
2019-04-25T15:13:40.316Z,12.70
2019-04-25T15:16:12.119Z,12.80
2019-04-25T15:18:46.883Z,13.00
2019-04-25T15:21:18.823Z,13.10
2019-04-25T15:24:00.003Z,13.30
2019-04-25T15:26:25.072Z,13.50
2019-04-25T15:28:57.231Z,13.80
2019-04-25T15:31:30.277Z,14.20
2019-04-25T15:34:02.542Z,13.90
2019-04-25T15:36:41.358Z,14.10
2019-04-25T15:39:31.091Z,14.10
2019-04-25T15:42:15.299Z,14.70
2019-04-25T15:45:16.409Z,14.10
2019-04-25T15:47:48.322Z,14.10
2019-04-25T15:50:20.403Z,14.30
2019-04-25T15:52:52.352Z,14.50
2019-04-25T15:55:24.389Z,14.50
2019-04-25T15:57:56.222Z,14.70
2019-04-25T16:00:35.112Z,14.90
2019-04-25T16:03:08.386Z,15.00
2019-04-25T16:05:41.212Z,15.20
2019-04-25T16:08:13.160Z,15.30
2019-04-25T16:10:45.185Z,15.40
2019-04-25T16:13:17.118Z,15.50
2019-04-25T16:15:48.952Z,15.80
2019-04-25T16:18:20.810Z,16.10
2019-04-25T16:20:52.680Z,15.90
2019-04-25T16:23:24.547Z,16.00
2019-04-25T16:25:56.560Z,16.30
2019-04-25T16:28:28.834Z,16.60
2019-04-25T16:31:01.041Z,16.50
2019-04-25T16:33:33.229Z,16.50
2019-04-25T16:36:05.339Z,16.60
2019-04-25T16:38:37.329Z,16.50
2019-04-25T16:41:09.552Z,16.80
2019-04-25T16:43:44.592Z,16.60
2019-04-25T16:46:18.119Z,16.60
2019-04-25T16:48:50.148Z,16.50
2019-04-25T16:51:22.489Z,16.80
2019-04-25T16:53:54.607Z,16.70
2019-04-25T16:56:26.907Z,16.60
2019-04-25T16:58:58.683Z,16.40
2019-04-25T17:01:31.658Z,16.90
2019-04-25T17:04:03.818Z,17.10
2019-04-25T17:06:36.157Z,17.20
2019-04-25T17:09:08.548Z,18.70
2019-04-25T17:11:42.219Z,18.80
2019-04-25T17:14:37.480Z,17.90
2019-04-25T17:17:20.841Z,18.40
2019-04-25T17:20:10.277Z,17.70
2019-04-25T17:22:42.281Z,18.70
2019-04-25T17:25:14.353Z,19.20
2019-04-25T17:27:46.364Z,19.00
2019-04-25T17:30:20.172Z,20.10
2019-04-25T17:33:01.915Z,19.70
2019-04-25T17:35:47.314Z,20.00
2019-04-25T17:38:28.932Z,20.30
2019-04-25T17:41:00.715Z,20.60
2019-04-25T17:43:33.049Z,20.30
2019-04-25T17:46:06.632Z,20.60
2019-04-25T17:48:38.456Z,19.80
2019-04-25T17:51:10.323Z,20.30
2019-04-25T17:53:43.232Z,19.70
2019-04-25T17:56:15.274Z,20.50
2019-04-25T17:58:47.787Z,20.40
2019-04-25T18:01:23.944Z,20.60
2019-04-25T18:03:55.745Z,20.10
2019-04-25T18:06:27.544Z,20.80
2019-04-25T18:08:59.338Z,19.80
2019-04-25T18:11:31.181Z,20.00
2019-04-25T18:14:03.208Z,20.10
2019-04-25T18:16:42.367Z,20.30
2019-04-25T18:19:36.376Z,20.50
2019-04-25T18:22:43.395Z,21.10
2019-04-25T18:41:30.694Z,19.90
2019-04-25T18:44:04.079Z,22.70
2019-04-25T18:46:40.500Z,21.10
2019-04-25T18:49:12.832Z,20.90
2019-04-25T18:51:55.168Z,21.00
2019-04-25T18:54:29.355Z,20.70
2019-04-25T18:57:15.053Z,20.80
2019-04-25T18:59:52.687Z,20.90
2019-04-25T19:02:52.669Z,21.00
2019-04-25T19:05:43.664Z,20.70
2019-04-25T19:08:15.789Z,20.80
2019-04-25T19:10:47.704Z,20.80
2019-04-25T19:13:19.826Z,21.10
2019-04-25T19:15:51.953Z,20.90
2019-04-25T19:18:24.137Z,21.00
2019-04-25T19:20:56.083Z,20.80
2019-04-25T19:23:28.142Z,20.80
2019-04-25T19:26:00.164Z,21.10
2019-04-25T19:28:32.194Z,21.30
2019-04-25T19:31:04.360Z,21.10
2019-04-25T19:33:37.675Z,21.00
2019-04-25T19:36:09.785Z,21.20
2019-04-25T19:38:42.017Z,21.30
2019-04-25T19:41:22.883Z,21.60
2019-04-25T19:44:02.132Z,21.30
2019-04-25T19:46:46.974Z,21.30
2019-04-25T19:49:19.474Z,21.60
2019-04-25T19:51:51.985Z,21.30
2019-04-25T19:54:24.278Z,21.10
2019-04-25T19:56:56.571Z,21.20
2019-04-25T19:59:28.553Z,21.20
2019-04-25T20:02:05.423Z,21.50
2019-04-25T20:05:05.348Z,21.40
2019-04-25T20:07:45.498Z,21.80
2019-04-25T20:10:34.760Z,21.70
2019-04-25T20:13:07.028Z,21.60
2019-04-25T20:15:38.902Z,21.70
2019-04-25T20:18:10.924Z,21.70
2019-04-25T20:20:43.429Z,21.90
2019-04-25T20:23:16.420Z,21.90
2019-04-25T20:25:48.441Z,21.80
2019-04-25T20:28:20.421Z,22.00
2019-04-25T20:30:52.279Z,22.40
2019-04-25T20:33:24.171Z,22.00
2019-04-25T20:35:56.372Z,22.10
2019-04-25T20:38:29.466Z,22.40
2019-04-25T20:41:01.386Z,22.40
2019-04-25T20:43:33.444Z,22.40
2019-04-25T20:46:06.459Z,22.30
2019-04-25T20:48:38.375Z,22.20
2019-04-25T20:51:10.711Z,22.40
2019-04-25T20:53:42.573Z,22.30
2019-04-25T20:56:14.531Z,22.40
2019-04-25T20:58:47.691Z,22.50
2019-04-25T21:01:19.916Z,22.50
2019-04-25T21:03:52.093Z,22.60
2019-04-25T21:06:31.553Z,22.50
2019-04-25T21:09:03.735Z,22.90
2019-04-25T21:11:37.406Z,23.00
2019-04-25T21:14:27.099Z,22.90
2019-04-25T21:17:02.927Z,22.90
2019-04-25T21:19:37.919Z,22.70
2019-04-25T21:22:10.075Z,23.10
2019-04-25T21:24:41.863Z,23.40
2019-04-25T21:27:13.882Z,22.90
2019-04-25T21:29:45.740Z,22.60
2019-04-25T21:32:19.193Z,22.70
2019-04-25T21:34:51.686Z,22.70
2019-04-25T21:37:26.272Z,22.90
2019-04-25T21:40:14.408Z,22.80
2019-04-25T21:42:51.845Z,22.70
2019-04-25T21:45:25.163Z,22.60
2019-04-25T21:47:58.739Z,22.50
2019-04-25T21:50:31.065Z,22.50
2019-04-25T21:53:03.824Z,22.50
2019-04-25T21:55:36.344Z,22.40
2019-04-25T21:58:08.602Z,22.50
2019-04-25T22:01:02.687Z,22.50
2019-04-25T22:03:36.610Z,23.20
2019-04-25T22:06:09.273Z,22.60
2019-04-25T22:08:41.434Z,22.70
2019-04-25T22:11:13.257Z,22.80
2019-04-25T22:13:45.846Z,23.00
2019-04-25T22:16:18.194Z,23.00
2019-04-25T22:18:50.600Z,23.10
2019-04-25T22:21:23.218Z,23.10
2019-04-25T22:24:06.185Z,23.00
2019-04-25T22:26:29.400Z,23.30
2019-04-25T22:29:03.359Z,23.20
2019-04-25T22:31:41.959Z,23.20
2019-04-25T22:34:35.472Z,23.40
2019-04-25T22:37:08.305Z,23.40
2019-04-25T22:39:40.395Z,23.60
2019-04-25T22:42:14.288Z,23.60
2019-04-25T22:44:46.104Z,23.60
2019-04-25T22:47:19.147Z,23.60
2019-04-25T22:49:51.481Z,23.70
2019-04-25T22:52:23.673Z,23.70
2019-04-25T22:54:56.917Z,23.70
2019-04-25T22:57:28.849Z,23.90
2019-04-25T23:00:01.920Z,23.90
2019-04-25T23:02:45.523Z,24.20
2019-04-25T23:05:24.236Z,23.40
2019-04-25T23:07:56.058Z,24.10
2019-04-25T23:10:28.753Z,23.60
2019-04-25T23:13:00.565Z,23.70
2019-04-25T23:15:33.444Z,23.80
2019-04-25T23:18:07.144Z,23.90
2019-04-25T23:20:40.448Z,24.10
2019-04-25T23:23:13.576Z,24.10
2019-04-25T23:26:06.465Z,24.10
2019-04-25T23:28:41.099Z,24.00
2019-04-25T23:31:16.841Z,24.20
2019-04-25T23:33:48.778Z,24.00
2019-04-25T23:36:21.275Z,24.00
2019-04-25T23:38:53.019Z,24.30
2019-04-25T23:41:25.525Z,24.30
2019-04-25T23:43:57.330Z,24.20
2019-04-25T23:46:29.653Z,24.20
2019-04-25T23:49:01.438Z,24.20
2019-04-25T23:51:33.587Z,24.60
2019-04-25T23:54:07.447Z,24.30
2019-04-25T23:56:39.532Z,24.50
2019-04-25T23:59:11.729Z,24.40
